Aviation Digital Data Service (ADDS)

Output produced by METARs form (2309 UTC 23 May 2022)
found at http://www.aviationweather.gov/metar/data/
 
TGPY 232200Z 2400/2424 09012KT 9999 SCT018 
     TEMPO 2406/2412 11020KT 5000 SHRA BKN017 BKN035 
     BECMG 2410/2412 11018KT SCT018 SCT036